sensor_id;sensor_type;location;lat;lon;timestamp;pressure;altitude;pressure_sealevel;temperature;humidity
56632;BME280;42503;39.928;-75.152;2023-07-31T00:01:02;101278.59;;;28.57;50.82
56632;BME280;42503;39.928;-75.152;2023-07-31T00:11:03;101273.47;;;28.59;50.81
56632;BME280;42503;39.928;-75.152;2023-07-31T00:21:05;101263.50;;;28.53;50.88
56632;BME280;42503;39.928;-75.152;2023-07-31T00:31:09;101264.66;;;28.52;50.70
56632;BME280;42503;39.928;-75.152;2023-07-31T00:41:10;101254.59;;;28.59;50.75
56632;BME280;42503;39.928;-75.152;2023-07-31T00:51:12;101257.28;;;28.02;47.52
56632;BME280;42503;39.928;-75.152;2023-07-31T01:01:13;101260.00;;;27.49;45.87
56632;BME280;42503;39.928;-75.152;2023-07-31T01:11:19;101291.91;;;27.30;51.54
56632;BME280;42503;39.928;-75.152;2023-07-31T01:21:30;101308.69;;;27.58;53.84
56632;BME280;42503;39.928;-75.152;2023-07-31T01:31:41;101328.81;;;27.88;53.47
56632;BME280;42503;39.928;-75.152;2023-07-31T01:41:47;101333.38;;;27.97;53.17
56632;BME280;42503;39.928;-75.152;2023-07-31T01:51:49;101324.72;;;27.94;53.06
56632;BME280;42503;39.928;-75.152;2023-07-31T02:01:53;101347.03;;;28.12;52.77
56632;BME280;42503;39.928;-75.152;2023-07-31T02:11:54;101351.81;;;28.12;52.43
56632;BME280;42503;39.928;-75.152;2023-07-31T02:21:56;101354.91;;;28.24;52.00
56632;BME280;42503;39.928;-75.152;2023-07-31T02:32:00;101359.22;;;28.30;52.00
56632;BME280;42503;39.928;-75.152;2023-07-31T02:42:01;101350.69;;;28.35;51.90
56632;BME280;42503;39.928;-75.152;2023-07-31T02:52:03;101350.53;;;28.41;51.68
56632;BME280;42503;39.928;-75.152;2023-07-31T03:02:12;101319.84;;;28.30;51.56
56632;BME280;42503;39.928;-75.152;2023-07-31T03:12:14;101340.81;;;28.47;51.46
56632;BME280;42503;39.928;-75.152;2023-07-31T03:22:15;101343.78;;;28.42;51.55
56632;BME280;42503;39.928;-75.152;2023-07-31T03:32:16;101334.31;;;28.38;51.48
56632;BME280;42503;39.928;-75.152;2023-07-31T03:42:18;101347.97;;;28.53;51.38
56632;BME280;42503;39.928;-75.152;2023-07-31T03:52:19;101288.13;;;28.16;51.39
56632;BME280;42503;39.928;-75.152;2023-07-31T04:02:21;101355.78;;;28.56;51.39
56632;BME280;42503;39.928;-75.152;2023-07-31T04:12:22;101336.38;;;28.54;51.33
56632;BME280;42503;39.928;-75.152;2023-07-31T04:22:24;101298.59;;;28.47;51.16
56632;BME280;42503;39.928;-75.152;2023-07-31T04:32:30;101328.13;;;28.58;51.32
56632;BME280;42503;39.928;-75.152;2023-07-31T04:42:32;101323.06;;;28.38;48.88
56632;BME280;42503;39.928;-75.152;2023-07-31T04:52:34;101304.94;;;27.62;46.16
56632;BME280;42503;39.928;-75.152;2023-07-31T05:02:35;101323.69;;;27.31;50.61
56632;BME280;42503;39.928;-75.152;2023-07-31T05:12:37;101319.72;;;27.68;53.16
56632;BME280;42503;39.928;-75.152;2023-07-31T05:22:38;101307.63;;;27.81;53.45
56632;BME280;42503;39.928;-75.152;2023-07-31T05:32:40;101294.44;;;27.91;53.31
56632;BME280;42503;39.928;-75.152;2023-07-31T05:42:41;101306.31;;;28.10;52.75
56632;BME280;42503;39.928;-75.152;2023-07-31T05:52:50;101307.47;;;28.09;52.74
56632;BME280;42503;39.928;-75.152;2023-07-31T06:02:53;101312.31;;;28.17;52.45
56632;BME280;42503;39.928;-75.152;2023-07-31T06:12:55;101306.38;;;28.19;52.39
56632;BME280;42503;39.928;-75.152;2023-07-31T06:22:56;101288.59;;;28.09;52.21
56632;BME280;42503;39.928;-75.152;2023-07-31T06:32:58;101310.22;;;28.31;52.15
56632;BME280;42503;39.928;-75.152;2023-07-31T06:42:59;101297.59;;;28.20;52.06
56632;BME280;42503;39.928;-75.152;2023-07-31T06:53:01;101320.25;;;28.38;51.74
56632;BME280;42503;39.928;-75.152;2023-07-31T07:03:06;101297.22;;;28.35;51.87
56632;BME280;42503;39.928;-75.152;2023-07-31T07:13:08;101291.69;;;28.30;51.47
56632;BME280;42503;39.928;-75.152;2023-07-31T07:23:12;101297.91;;;28.41;51.62
56632;BME280;42503;39.928;-75.152;2023-07-31T07:33:13;101288.56;;;28.32;51.58
56632;BME280;42503;39.928;-75.152;2023-07-31T07:43:15;101275.56;;;28.45;51.28
56632;BME280;42503;39.928;-75.152;2023-07-31T07:53:17;101256.00;;;28.40;51.28
56632;BME280;42503;39.928;-75.152;2023-07-31T08:03:18;101266.28;;;28.44;51.42
56632;BME280;42503;39.928;-75.152;2023-07-31T08:13:20;101279.91;;;28.51;51.16
56632;BME280;42503;39.928;-75.152;2023-07-31T08:23:21;101262.00;;;28.47;51.19
56632;BME280;42503;39.928;-75.152;2023-07-31T08:33:22;101268.09;;;28.40;50.83
56632;BME280;42503;39.928;-75.152;2023-07-31T08:43:27;101265.28;;;28.40;50.92
56632;BME280;42503;39.928;-75.152;2023-07-31T08:53:29;101262.91;;;28.33;51.06
56632;BME280;42503;39.928;-75.152;2023-07-31T09:03:33;101279.38;;;28.49;51.11
56632;BME280;42503;39.928;-75.152;2023-07-31T09:13:35;101281.56;;;28.52;50.89
56632;BME280;42503;39.928;-75.152;2023-07-31T09:23:46;101290.78;;;28.44;51.15
56632;BME280;42503;39.928;-75.152;2023-07-31T09:33:55;101290.66;;;28.49;50.96
56632;BME280;42503;39.928;-75.152;2023-07-31T09:43:59;101297.28;;;28.53;50.78
56632;BME280;42503;39.928;-75.152;2023-07-31T09:54:01;101295.25;;;28.45;50.93
56632;BME280;42503;39.928;-75.152;2023-07-31T10:04:04;101294.13;;;28.46;50.96
56632;BME280;42503;39.928;-75.152;2023-07-31T10:14:07;101317.63;;;28.50;50.77
56632;BME280;42503;39.928;-75.152;2023-07-31T10:24:15;101302.25;;;28.47;50.81
56632;BME280;42503;39.928;-75.152;2023-07-31T10:34:17;101339.53;;;28.53;50.84
56632;BME280;42503;39.928;-75.152;2023-07-31T10:44:18;101361.41;;;28.56;50.76
56632;BME280;42503;39.928;-75.152;2023-07-31T10:54:19;101350.78;;;28.53;50.98
56632;BME280;42503;39.928;-75.152;2023-07-31T11:04:25;101356.41;;;28.53;50.66
56632;BME280;42503;39.928;-75.152;2023-07-31T11:14:26;101359.88;;;28.50;50.47
56632;BME280;42503;39.928;-75.152;2023-07-31T11:24:28;101374.41;;;28.43;50.98
56632;BME280;42503;39.928;-75.152;2023-07-31T11:34:29;101392.00;;;28.49;50.83
56632;BME280;42503;39.928;-75.152;2023-07-31T11:44:41;101396.94;;;28.43;50.66
56632;BME280;42503;39.928;-75.152;2023-07-31T11:54:49;101417.19;;;28.54;50.51
56632;BME280;42503;39.928;-75.152;2023-07-31T12:04:51;101412.59;;;28.35;50.72
56632;BME280;42503;39.928;-75.152;2023-07-31T12:14:52;101431.28;;;28.54;50.73
56632;BME280;42503;39.928;-75.152;2023-07-31T12:24:56;101434.75;;;28.51;50.52
56632;BME280;42503;39.928;-75.152;2023-07-31T12:34:59;101433.25;;;28.53;50.93
56632;BME280;42503;39.928;-75.152;2023-07-31T12:45:02;101430.44;;;28.53;50.78
56632;BME280;42503;39.928;-75.152;2023-07-31T12:55:05;101424.31;;;28.51;50.50
56632;BME280;42503;39.928;-75.152;2023-07-31T13:05:09;101407.72;;;28.50;50.61
56632;BME280;42503;39.928;-75.152;2023-07-31T13:15:12;101389.44;;;28.39;50.67
56632;BME280;42503;39.928;-75.152;2023-07-31T13:25:13;101422.69;;;28.59;50.46
56632;BME280;42503;39.928;-75.152;2023-07-31T13:35:15;101348.25;;;28.20;50.45
56632;BME280;42503;39.928;-75.152;2023-07-31T13:45:16;101397.13;;;28.47;50.65
56632;BME280;42503;39.928;-75.152;2023-07-31T13:55:18;101406.47;;;28.56;50.70
56632;BME280;42503;39.928;-75.152;2023-07-31T14:05:19;101398.00;;;28.56;50.71
56632;BME280;42503;39.928;-75.152;2023-07-31T14:15:21;101403.13;;;28.54;50.70
56632;BME280;42503;39.928;-75.152;2023-07-31T14:25:22;101397.47;;;28.54;50.70
56632;BME280;42503;39.928;-75.152;2023-07-31T14:35:24;101407.63;;;28.63;50.47
56632;BME280;42503;39.928;-75.152;2023-07-31T14:45:26;101402.69;;;28.60;50.46
56632;BME280;42503;39.928;-75.152;2023-07-31T14:55:27;101406.81;;;28.63;50.35
56632;BME280;42503;39.928;-75.152;2023-07-31T15:05:28;101409.13;;;28.61;50.30
56632;BME280;42503;39.928;-75.152;2023-07-31T15:15:30;101405.34;;;28.66;50.30
56632;BME280;42503;39.928;-75.152;2023-07-31T15:25:31;101404.66;;;28.60;50.25
56632;BME280;42503;39.928;-75.152;2023-07-31T15:35:33;101413.47;;;28.67;50.23
56632;BME280;42503;39.928;-75.152;2023-07-31T15:45:34;101409.31;;;28.65;50.41
56632;BME280;42503;39.928;-75.152;2023-07-31T15:55:38;101401.84;;;28.60;49.78
56632;BME280;42503;39.928;-75.152;2023-07-31T16:05:42;101387.88;;;27.88;48.50
56632;BME280;42503;39.928;-75.152;2023-07-31T16:15:43;101392.88;;;27.41;48.31
56632;BME280;42503;39.928;-75.152;2023-07-31T16:25:44;101388.81;;;27.33;52.04
56632;BME280;42503;39.928;-75.152;2023-07-31T16:35:48;101379.50;;;27.60;53.64
56632;BME280;42503;39.928;-75.152;2023-07-31T16:45:50;101377.97;;;27.90;51.86
56632;BME280;42503;39.928;-75.152;2023-07-31T16:55:52;101381.25;;;28.06;51.12
56632;BME280;42503;39.928;-75.152;2023-07-31T17:05:53;101356.97;;;28.10;50.66
56632;BME280;42503;39.928;-75.152;2023-07-31T17:15:57;101366.16;;;28.24;50.41
56632;BME280;42503;39.928;-75.152;2023-07-31T17:25:58;101341.78;;;28.20;50.06
56632;BME280;42503;39.928;-75.152;2023-07-31T17:35:59;101329.25;;;28.26;50.22
56632;BME280;42503;39.928;-75.152;2023-07-31T17:46:02;101338.78;;;28.39;49.81
56632;BME280;42503;39.928;-75.152;2023-07-31T17:56:03;101336.47;;;28.41;50.05
56632;BME280;42503;39.928;-75.152;2023-07-31T18:06:05;101336.84;;;28.25;49.35
56632;BME280;42503;39.928;-75.152;2023-07-31T18:16:07;101335.84;;;27.76;50.09
56632;BME280;42503;39.928;-75.152;2023-07-31T18:26:11;101296.78;;;27.39;50.36
56632;BME280;42503;39.928;-75.152;2023-07-31T18:36:12;101307.41;;;27.42;50.56
56632;BME280;42503;39.928;-75.152;2023-07-31T18:46:13;101308.16;;;27.33;49.44
56632;BME280;42503;39.928;-75.152;2023-07-31T18:56:17;101300.16;;;27.27;50.86
56632;BME280;42503;39.928;-75.152;2023-07-31T19:06:18;101290.72;;;27.23;51.12
56632;BME280;42503;39.928;-75.152;2023-07-31T19:16:20;101286.16;;;27.13;51.12
56632;BME280;42503;39.928;-75.152;2023-07-31T19:26:21;101282.19;;;27.14;53.00
56632;BME280;42503;39.928;-75.152;2023-07-31T19:36:22;101287.59;;;27.10;53.29
56632;BME280;42503;39.928;-75.152;2023-07-31T19:46:24;101264.63;;;26.95;54.64
56632;BME280;42503;39.928;-75.152;2023-07-31T19:56:25;101256.00;;;26.91;55.00
56632;BME280;42503;39.928;-75.152;2023-07-31T20:06:27;101272.22;;;26.94;53.27
56632;BME280;42503;39.928;-75.152;2023-07-31T20:16:28;101298.63;;;26.93;52.97
56632;BME280;42503;39.928;-75.152;2023-07-31T20:26:30;101299.66;;;26.83;52.69
56632;BME280;42503;39.928;-75.152;2023-07-31T20:36:32;101295.41;;;26.72;52.49
56632;BME280;42503;39.928;-75.152;2023-07-31T20:46:33;101292.41;;;26.69;51.99
56632;BME280;42503;39.928;-75.152;2023-07-31T20:56:34;101282.59;;;26.52;51.74
56632;BME280;42503;39.928;-75.152;2023-07-31T21:06:36;101282.22;;;26.45;51.88
56632;BME280;42503;39.928;-75.152;2023-07-31T21:16:38;101298.84;;;26.55;51.49
56632;BME280;42503;39.928;-75.152;2023-07-31T21:26:42;101307.25;;;26.55;54.15
56632;BME280;42503;39.928;-75.152;2023-07-31T21:36:44;101310.91;;;26.83;55.57
56632;BME280;42503;39.928;-75.152;2023-07-31T21:46:46;101305.59;;;26.96;55.15
56632;BME280;42503;39.928;-75.152;2023-07-31T21:56:47;101296.13;;;27.19;54.45
56632;BME280;42503;39.928;-75.152;2023-07-31T22:06:50;101308.56;;;27.41;54.03
56632;BME280;42503;39.928;-75.152;2023-07-31T22:16:51;101300.97;;;27.41;53.59
56632;BME280;42503;39.928;-75.152;2023-07-31T22:26:52;101324.09;;;27.60;53.24
56632;BME280;42503;39.928;-75.152;2023-07-31T22:36:57;101321.38;;;27.69;53.16
56632;BME280;42503;39.928;-75.152;2023-07-31T22:46:58;101337.53;;;27.77;52.80
56632;BME280;42503;39.928;-75.152;2023-07-31T22:57:01;101348.13;;;27.80;52.74
56632;BME280;42503;39.928;-75.152;2023-07-31T23:07:02;101347.69;;;27.87;52.58
56632;BME280;42503;39.928;-75.152;2023-07-31T23:17:04;101360.47;;;27.93;52.34
56632;BME280;42503;39.928;-75.152;2023-07-31T23:27:05;101376.38;;;27.98;52.28
56632;BME280;42503;39.928;-75.152;2023-07-31T23:37:07;101399.91;;;28.02;51.93
56632;BME280;42503;39.928;-75.152;2023-07-31T23:47:08;101395.66;;;28.04;51.99
56632;BME280;42503;39.928;-75.152;2023-07-31T23:57:10;101386.31;;;27.95;51.49
